Time;durP1;ratioP1;P1;durP2;ratioP2;P2;SDS_P1;SDS_P2;PMS_P1;PMS_P2;Temp;Humidity;BMP_temperature;BMP_pressure;BME280_temperature;BME280_humidity;BME280_pressure;Samples;Min_cycle;Max_cycle;Signal;HPM_P1;HPM_P2
2021/06/07 00:00:42;;;;;;;73.33;51.43;;;;;;;14.86;97.75;101166.13;5120111;27;20225;-70
2021/06/07 00:03:08;;;;;;;68.60;50.27;;;;;;;14.86;97.74;101168.75;5119065;27;20474;-69
2021/06/07 00:05:34;;;;;;;69.57;51.37;;;;;;;14.86;97.99;101168.75;5120120;27;20817;-70
2021/06/07 00:07:59;;;;;;;63.50;50.13;;;;;;;14.84;97.85;101168.78;5119848;27;20250;-69
2021/06/07 00:10:27;;;;;;;68.97;50.73;;;;;;;14.84;97.96;101171.41;5119871;27;20204;-69
2021/06/07 00:12:53;;;;;;;65.57;49.70;;;;;;;14.86;97.65;101169.63;5119683;27;20206;-69
2021/06/07 00:15:23;;;;;;;64.03;49.87;;;;;;;14.88;97.79;101173.09;5119507;27;20723;-68
2021/06/07 00:17:49;;;;;;;63.27;48.70;;;;;;;14.91;97.45;101169.53;5119415;27;20229;-69
2021/06/07 00:20:20;;;;;;;59.50;46.03;;;;;;;15.01;97.58;101167.53;5119649;27;20212;-69
2021/06/07 00:22:46;;;;;;;53.57;44.90;;;;;;;15.06;96.53;101165.63;5119374;27;20214;-69
2021/06/07 00:25:12;;;;;;;53.63;42.53;;;;;;;15.05;96.06;101159.50;5119656;27;20634;-69
2021/06/07 00:27:40;;;;;;;54.30;44.00;;;;;;;15.07;96.09;101167.34;5119433;27;20312;-69
2021/06/07 00:30:07;;;;;;;49.77;42.83;;;;;;;15.08;95.59;101169.97;5108573;27;20217;-69
2021/06/07 00:32:33;;;;;;;55.40;43.63;;;;;;;15.09;95.63;101165.56;5105192;27;20210;-69
2021/06/07 00:34:59;;;;;;;49.07;43.80;;;;;;;15.07;95.76;101162.97;5105634;28;20703;-69
2021/06/07 00:37:25;;;;;;;53.63;41.77;;;;;;;15.08;95.65;101161.19;5105796;28;20231;-69
2021/06/07 00:39:51;;;;;;;56.23;43.27;;;;;;;15.12;95.52;101167.22;5105888;28;20723;-69
2021/06/07 00:42:17;;;;;;;45.73;40.80;;;;;;;15.18;95.50;101172.31;5105180;28;20236;-68
2021/06/07 00:44:46;;;;;;;48.60;40.17;;;;;;;15.22;94.92;101173.97;5105125;28;20230;-69
2021/06/07 00:47:12;;;;;;;43.47;38.77;;;;;;;15.24;94.74;101166.91;5105371;28;20326;-69
2021/06/07 00:49:38;;;;;;;43.83;39.20;;;;;;;15.12;94.53;101162.81;5105557;28;20206;-69
2021/06/07 00:52:05;;;;;;;45.57;38.90;;;;;;;15.06;94.81;101165.63;5105057;28;20295;-68
2021/06/07 00:54:31;;;;;;;44.07;39.63;;;;;;;15.00;95.12;101166.63;5105487;28;20226;-69
2021/06/07 00:56:57;;;;;;;43.03;38.37;;;;;;;15.01;94.72;101167.53;5105018;28;20206;-69
2021/06/07 00:59:22;;;;;;;42.87;38.43;;;;;;;14.91;94.71;101166.03;5105061;28;20205;-68
2021/06/07 01:01:50;;;;;;;40.43;36.57;;;;;;;14.86;94.53;101166.13;5105096;27;20214;-69
2021/06/07 01:04:16;;;;;;;45.07;36.20;;;;;;;14.92;nan;101168.59;5105071;28;20231;-69
2021/06/07 01:06:42;;;;;;;38.47;34.70;;;;;;;14.91;93.73;101166.88;5104839;28;20224;-68
2021/06/07 01:09:09;;;;;;;34.97;31.87;;;;;;;14.93;93.13;101167.72;5105180;28;20254;-69
2021/06/07 01:11:36;;;;;;;36.07;32.83;;;;;;;14.83;92.35;101166.22;5105058;28;20260;-69
2021/06/07 01:14:04;;;;;;;33.53;30.47;;;;;;;14.83;92.21;101164.44;5104406;28;20232;-69
2021/06/07 01:16:30;;;;;;;33.30;29.90;;;;;;;14.88;91.77;101166.94;5105072;28;20205;-69
2021/06/07 01:18:57;;;;;;;30.90;28.27;;;;;;;14.88;91.39;101157.31;5104816;28;20231;-69
2021/06/07 01:21:25;;;;;;;30.03;27.47;;;;;;;14.87;91.19;101162.63;5104524;28;20205;-69
2021/06/07 01:23:54;;;;;;;32.17;29.00;;;;;;;14.81;91.32;101162.78;5104228;28;20230;-69
2021/06/07 01:26:22;;;;;;;30.20;27.30;;;;;;;14.72;90.99;101173.50;5104621;28;20261;-68
2021/06/07 01:28:49;;;;;;;30.67;27.97;;;;;;;14.72;91.09;101170.88;5104403;28;20203;-69
2021/06/07 01:31:16;;;;;;;30.63;27.67;;;;;;;14.76;90.66;101168.13;5104738;27;21095;-69
2021/06/07 01:33:44;;;;;;;31.00;28.47;;;;;;;14.73;91.02;101167.31;5103822;28;20715;-69
2021/06/07 01:36:10;;;;;;;30.27;27.30;;;;;;;14.75;90.94;101174.28;5104514;28;20308;-69
2021/06/07 01:38:37;;;;;;;29.90;27.27;;;;;;;14.71;90.97;101177.91;5104492;28;20245;-69
2021/06/07 01:41:07;;;;;;;30.00;27.20;;;;;;;14.62;91.33;101171.06;5103297;28;20210;-69
2021/06/07 01:43:35;;;;;;;31.07;28.10;;;;;;;14.70;91.04;101173.53;5103823;28;20288;-69
2021/06/07 01:46:01;;;;;;;30.57;27.90;;;;;;;14.78;90.91;101178.59;5104192;28;20203;-70
2021/06/07 01:48:27;;;;;;;29.63;27.10;;;;;;;14.67;89.91;101179.72;5104686;28;20667;-68
2021/06/07 01:50:56;;;;;;;30.47;26.97;;;;;;;14.64;90.13;101171.06;5104256;28;20203;-69
2021/06/07 01:53:25;;;;;;;30.03;27.10;;;;;;;14.43;90.64;101169.75;5103791;28;20267;-69
2021/06/07 01:55:54;;;;;;;28.80;26.43;;;;;;;14.44;90.29;101174.13;5103507;28;20209;-68
2021/06/07 01:58:23;;;;;;;29.50;26.80;;;;;;;14.39;90.25;101170.72;5103991;28;20238;-68
2021/06/07 02:00:51;;;;;;;29.60;26.93;;;;;;;14.40;89.84;101177.72;5103714;28;20206;-69
2021/06/07 02:03:19;;;;;;;28.37;25.97;;;;;;;14.39;89.50;101168.97;5103699;28;20280;-69
2021/06/07 02:05:48;;;;;;;30.10;27.37;;;;;;;14.32;89.94;101174.41;5103960;28;20658;-68
2021/06/07 02:08:15;;;;;;;31.47;27.03;;;;;;;14.30;90.23;101163.94;5103588;28;20233;-69
2021/06/07 02:10:44;;;;;;;29.57;26.57;;;;;;;14.24;90.10;101175.44;5104047;28;20217;-69
2021/06/07 02:13:11;;;;;;;29.50;26.57;;;;;;;14.28;90.21;101177.09;5103580;28;20209;-69
2021/06/07 02:15:39;;;;;;;28.07;25.57;;;;;;;14.23;89.82;101176.34;5103648;28;20209;-68
2021/06/07 02:18:08;;;;;;;28.40;25.63;;;;;;;14.21;89.77;101170.25;5103420;28;20228;-68
2021/06/07 02:20:36;;;;;;;26.03;23.77;;;;;;;14.10;89.35;101177.50;5103484;28;20233;-68
2021/06/07 02:23:02;;;;;;;26.17;24.27;;;;;;;14.11;90.13;101179.22;5102963;28;20213;-69
2021/06/07 02:25:28;;;;;;;25.80;23.57;;;;;;;14.19;89.09;101171.16;5103782;28;20209;-69
2021/06/07 02:27:54;;;;;;;30.53;24.30;;;;;;;14.18;89.75;101177.34;5103081;28;20588;-68
2021/06/07 02:30:23;;;;;;;24.87;22.87;;;;;;;14.13;89.69;101176.56;5103735;27;20252;-69
2021/06/07 02:32:51;;;;;;;24.97;22.87;;;;;;;14.19;89.64;101173.78;5102911;28;20686;-68
2021/06/07 02:35:19;;;;;;;26.00;24.07;;;;;;;14.14;89.18;101173.91;5103350;28;20453;-69
2021/06/07 02:37:46;;;;;;;24.87;22.80;;;;;;;14.22;89.66;101173.75;5103347;28;20281;-69
2021/06/07 02:40:14;;;;;;;25.27;22.87;;;;;;;14.17;88.94;101175.59;5103251;28;20208;-68
2021/06/07 02:42:41;;;;;;;23.90;21.90;;;;;;;14.20;89.20;101183.41;5102510;28;20209;-69
2021/06/07 02:45:10;;;;;;;24.67;22.83;;;;;;;14.27;89.34;101182.38;5103171;28;20279;-69
2021/06/07 02:47:36;;;;;;;24.63;22.47;;;;;;;14.17;88.71;101183.47;5102970;28;20206;-69
2021/06/07 02:50:04;;;;;;;25.93;23.30;;;;;;;14.03;88.77;101179.41;5102465;28;20310;-68
2021/06/07 02:52:30;;;;;;;28.40;26.03;;;;;;;13.89;89.47;101187.56;5102482;28;20211;-68
2021/06/07 02:54:56;;;;;;;26.53;24.63;;;;;;;13.92;89.35;101183.16;5102759;28;20271;-69
2021/06/07 02:57:21;;;;;;;29.23;26.40;;;;;;;13.89;89.47;101187.56;5102634;28;20220;-68
2021/06/07 02:59:47;;;;;;;30.43;27.33;;;;;;;13.95;89.42;101180.44;5102871;28;20215;-69
2021/06/07 03:02:13;;;;;;;32.10;28.90;;;;;;;13.94;88.97;101181.34;5102353;28;20211;-68
2021/06/07 03:04:39;;;;;;;30.33;27.70;;;;;;;13.99;89.23;101187.34;5102050;28;20233;-68
2021/06/07 03:07:07;;;;;;;30.90;27.70;;;;;;;13.99;89.16;101182.09;5103039;28;20249;-69
2021/06/07 03:09:32;;;;;;;31.90;29.00;;;;;;;13.93;89.49;101177.00;5102610;28;20672;-69
2021/06/07 03:11:58;;;;;;;33.63;30.40;;;;;;;13.88;89.57;101183.19;5102478;28;20256;-68
2021/06/07 03:14:24;;;;;;;36.67;30.07;;;;;;;13.86;90.16;101187.63;5102933;28;20302;-69
2021/06/07 03:16:50;;;;;;;34.60;30.90;;;;;;;13.86;89.75;101179.75;5102147;28;20854;-68
2021/06/07 03:19:16;;;;;;;32.90;29.37;;;;;;;14.02;90.06;101184.69;5102423;28;20260;-69
2021/06/07 03:21:42;;;;;;;31.30;28.27;;;;;;;14.15;88.98;101180.00;5102426;28;20204;-69
2021/06/07 03:24:10;;;;;;;31.67;28.27;;;;;;;14.14;88.68;101183.56;5102175;28;20235;-68
2021/06/07 03:26:35;;;;;;;31.83;28.63;;;;;;;14.03;89.08;101186.41;5102599;28;20210;-69
2021/06/07 03:29:01;;;;;;;31.27;28.30;;;;;;;14.05;89.18;101188.13;5102022;28;20258;-68
2021/06/07 03:31:27;;;;;;;31.30;28.17;;;;;;;14.13;89.95;101190.53;5102566;28;20804;-69
2021/06/07 03:33:53;;;;;;;31.20;28.37;;;;;;;14.21;89.01;101188.66;5101696;28;20227;-69
2021/06/07 03:36:20;;;;;;;32.63;29.33;;;;;;;14.10;89.01;101188.84;5102782;28;20209;-69
2021/06/07 03:38:46;;;;;;;31.83;28.87;;;;;;;14.02;88.76;101182.91;5102646;28;20229;-69
2021/06/07 03:41:13;;;;;;;34.20;30.90;;;;;;;13.93;88.96;101185.72;5102684;28;20224;-68
2021/06/07 03:43:40;;;;;;;33.80;30.37;;;;;;;13.85;89.31;101185.88;5102288;28;20223;-69
2021/06/07 03:46:06;;;;;;;32.07;29.10;;;;;;;13.94;89.52;101183.97;5104761;28;20262;-69
2021/06/07 03:48:32;;;;;;;33.37;30.13;;;;;;;13.90;89.89;101191.06;5104382;28;20209;-69
2021/06/07 03:50:59;;;;;;;31.40;28.50;;;;;;;14.08;89.80;101184.56;5107771;28;20201;-69
2021/06/07 03:53:25;;;;;;;32.07;28.77;;;;;;;14.17;89.21;101186.09;5105173;28;20225;-69
2021/06/07 03:55:52;;;;;;;33.63;28.83;;;;;;;14.30;88.52;101177.91;5104034;28;20271;-69
2021/06/07 03:58:19;;;;;;;31.27;28.17;;;;;;;14.37;88.83;101185.66;5102330;28;20327;-68
2021/06/07 04:00:45;;;;;;;31.80;28.77;;;;;;;14.15;88.81;101180.88;5102464;28;20214;-69
2021/06/07 04:03:11;;;;;;;32.97;29.60;;;;;;;14.20;88.82;101191.28;5102085;28;20694;-69
2021/06/07 04:05:39;;;;;;;33.03;29.83;;;;;;;14.02;89.36;101187.31;5105636;28;20205;-68
2021/06/07 04:08:06;;;;;;;32.70;29.67;;;;;;;14.01;89.33;101182.94;5106512;28;20213;-69
2021/06/07 04:10:32;;;;;;;33.23;29.90;;;;;;;13.86;90.35;101184.13;5106454;28;20218;-69
2021/06/07 04:12:58;;;;;;;35.10;31.47;;;;;;;13.93;90.40;101185.72;5105669;28;20253;-69
2021/06/07 04:15:27;;;;;;;34.50;31.13;;;;;;;13.74;90.91;101187.03;5106151;27;20260;-69
2021/06/07 04:17:54;;;;;;;36.53;32.03;;;;;;;13.61;91.81;101184.63;5106028;28;20225;-69
2021/06/07 04:20:22;;;;;;;35.13;31.37;;;;;;;13.63;91.83;101188.06;5106409;28;20220;-68
2021/06/07 04:22:48;;;;;;;35.23;31.30;;;;;;;13.68;91.63;101193.25;5105554;28;20241;-69
2021/06/07 04:25:17;;;;;;;35.13;31.40;;;;;;;13.73;91.37;101196.63;5106154;28;20231;-69
2021/06/07 04:27:44;;;;;;;36.10;32.30;;;;;;;13.70;91.73;101186.22;5105380;28;20204;-69
2021/06/07 04:30:13;;;;;;;36.33;32.63;;;;;;;13.68;91.38;101188.00;5105973;28;20814;-69
2021/06/07 04:32:40;;;;;;;35.40;31.67;;;;;;;13.64;91.78;101192.44;5105632;28;20272;-69
2021/06/07 04:35:09;;;;;;;37.57;33.77;;;;;;;13.64;91.56;101183.72;5105920;28;20219;-69
2021/06/07 04:37:39;;;;;;;36.53;32.83;;;;;;;13.65;91.50;101190.66;5105570;28;20635;-68
2021/06/07 04:40:07;;;;;;;37.47;33.53;;;;;;;13.59;91.66;101186.41;5105463;28;20214;-68
2021/06/07 04:42:32;;;;;;;37.63;33.27;;;;;;;13.67;91.34;101184.50;5105133;28;20209;-68
2021/06/07 04:44:58;;;;;;;33.87;30.60;;;;;;;13.76;90.70;101179.97;5106070;28;20282;-69
2021/06/07 04:47:24;;;;;;;35.37;31.57;;;;;;;13.84;90.16;101185.94;5105706;28;20206;-69
2021/06/07 04:49:52;;;;;;;32.60;29.40;;;;;;;14.03;89.96;101181.13;5105617;28;20206;-69
2021/06/07 04:52:18;;;;;;;32.80;29.37;;;;;;;14.04;89.54;101178.50;5105481;28;20389;-69
2021/06/07 04:54:43;;;;;;;31.10;27.73;;;;;;;14.08;89.57;101184.56;5105379;28;20753;-69
2021/06/07 04:57:09;;;;;;;33.23;30.20;;;;;;;14.16;89.57;101177.38;5105333;28;20216;-69
2021/06/07 04:59:35;;;;;;;33.33;29.77;;;;;;;14.04;90.44;101185.50;5105317;28;20238;-69
2021/06/07 05:02:01;;;;;;;31.40;28.43;;;;;;;13.96;90.04;101187.44;5105271;28;21204;-69
2021/06/07 05:04:27;;;;;;;32.13;28.97;;;;;;;13.67;90.52;101175.75;5105430;28;20290;-69
2021/06/07 05:06:54;;;;;;;31.57;28.77;;;;;;;13.50;91.02;101176.97;5105195;28;20207;-69
2021/06/07 05:09:20;;;;;;;31.90;28.93;;;;;;;13.61;91.68;101187.22;5105198;28;20204;-68
2021/06/07 05:11:46;;;;;;;32.53;29.30;;;;;;;13.68;91.58;101190.63;5104774;28;20301;-68
2021/06/07 05:14:12;;;;;;;31.13;28.43;;;;;;;13.70;91.01;101181.81;5104850;28;20305;-69
2021/06/07 05:16:37;;;;;;;32.13;29.00;;;;;;;13.70;90.74;101188.84;5105297;28;20234;-69
2021/06/07 05:19:03;;;;;;;31.33;28.73;;;;;;;13.63;90.97;101188.06;5104421;28;20597;-71
2021/06/07 05:21:29;;;;;;;33.13;29.87;;;;;;;13.69;91.09;101189.72;5104252;27;20206;-70
2021/06/07 05:23:56;;;;;;;33.47;30.27;;;;;;;13.74;90.25;101187.88;5104007;27;20229;-69
2021/06/07 05:26:22;;;;;;;30.77;28.30;;;;;;;13.81;90.42;101191.22;5104318;27;20204;-69
2021/06/07 05:28:48;;;;;;;30.33;27.43;;;;;;;13.96;90.38;101190.91;5105756;27;20711;-69
2021/06/07 05:31:14;;;;;;;29.97;27.50;;;;;;;13.90;89.31;101194.53;5105011;27;20641;-70
2021/06/07 05:33:40;;;;;;;28.30;26.17;;;;;;;13.83;89.62;101195.53;5103575;27;20665;-70
2021/06/07 05:36:07;;;;;;;30.57;27.93;;;;;;;13.83;89.80;101194.69;5105365;27;20196;-71
2021/06/07 05:38:33;;;;;;;29.87;27.33;;;;;;;13.95;89.67;101197.06;5104989;27;20316;-70
2021/06/07 05:41:00;;;;;;;30.47;27.60;;;;;;;14.05;88.97;101201.25;5105092;27;20214;-70
2021/06/07 05:43:26;;;;;;;31.10;28.40;;;;;;;14.12;89.10;101191.47;5105257;27;20217;-71
2021/06/07 05:45:53;;;;;;;28.57;26.07;;;;;;;14.34;88.64;101197.09;5105538;27;20209;-69
2021/06/07 05:48:19;;;;;;;28.20;25.80;;;;;;;14.39;87.80;101199.63;5105128;27;20588;-69
2021/06/07 05:50:46;;;;;;;29.43;26.80;;;;;;;14.50;87.15;101198.47;5104712;27;20677;-69
2021/06/07 05:53:14;;;;;;;29.07;26.67;;;;;;;14.25;88.01;101194.66;5103558;27;20243;-69
2021/06/07 05:55:42;;;;;;;30.67;27.27;;;;;;;14.09;88.60;101200.28;5104630;27;20214;-69
2021/06/07 05:58:11;;;;;;;29.80;27.10;;;;;;;14.16;88.74;101194.88;5104717;27;20222;-69
2021/06/07 06:00:41;;;;;;;31.73;28.63;;;;;;;14.16;89.10;101200.13;5104570;27;20722;-69
2021/06/07 06:03:08;;;;;;;29.77;27.47;;;;;;;14.10;87.86;101196.72;5104519;27;20201;-69
2021/06/07 06:05:34;;;;;;;29.77;26.87;;;;;;;14.28;88.47;101197.25;5102287;27;20665;-71
2021/06/07 06:08:01;;;;;;;30.10;27.57;;;;;;;14.41;87.83;101192.56;5104371;27;20255;-71
2021/06/07 06:10:27;;;;;;;31.07;28.07;;;;;;;14.39;87.68;101196.97;5104654;27;20200;-71
2021/06/07 06:12:53;;;;;;;29.60;27.03;;;;;;;14.26;88.48;101199.91;5104182;27;20296;-71
2021/06/07 06:15:21;;;;;;;29.70;27.30;;;;;;;14.27;88.63;101206.88;5104097;27;20226;-71
2021/06/07 06:17:48;;;;;;;28.87;26.53;;;;;;;14.23;88.91;101199.97;5103967;27;20266;-71
2021/06/07 06:20:15;;;;;;;31.80;28.63;;;;;;;14.42;88.74;101210.06;5104370;27;20682;-71
2021/06/07 06:22:41;;;;;;;27.37;25.03;;;;;;;14.38;88.41;101209.25;5104387;27;20216;-71
2021/06/07 06:25:09;;;;;;;24.43;22.50;;;;;;;14.49;86.18;101212.53;5104097;27;20229;-71
2021/06/07 06:27:35;;;;;;;22.70;20.90;;;;;;;14.61;85.94;101210.56;5103354;27;20371;-71
2021/06/07 06:30:01;;;;;;;23.23;21.43;;;;;;;14.66;85.38;101212.16;5104102;27;20599;-71
2021/06/07 06:32:28;;;;;;;20.77;19.27;;;;;;;14.45;84.69;101202.97;5104378;27;20202;-70
2021/06/07 06:34:55;;;;;;;24.13;22.10;;;;;;;14.42;85.81;101204.81;5104008;27;21038;-71
2021/06/07 06:37:21;;;;;;;21.97;20.50;;;;;;;14.44;85.57;101206.50;5104626;27;20204;-71
2021/06/07 06:39:46;;;;;;;21.90;20.40;;;;;;;14.52;85.41;101216.84;5104129;27;20228;-71
2021/06/07 06:42:12;;;;;;;22.50;20.80;;;;;;;14.66;84.85;101208.66;5104202;27;20204;-71
2021/06/07 06:44:38;;;;;;;22.50;20.80;;;;;;;14.69;84.80;101206.84;5104422;27;20237;-71
2021/06/07 06:47:05;;;;;;;22.50;20.87;;;;;;;14.70;85.66;101215.56;5103897;27;20250;-69
2021/06/07 06:49:32;;;;;;;23.90;22.23;;;;;;;14.74;85.38;101219.00;5103817;28;20196;-70
2021/06/07 06:51:59;;;;;;;24.23;22.33;;;;;;;14.70;85.78;101216.44;5103072;27;20222;-70
2021/06/07 06:54:26;;;;;;;23.30;21.50;;;;;;;14.90;85.22;101222.97;5103794;27;20231;-71
2021/06/07 06:56:52;;;;;;;23.63;21.73;;;;;;;15.14;85.12;101215.38;5103207;27;20798;-71
2021/06/07 06:59:18;;;;;;;22.23;20.67;;;;;;;15.34;83.83;101223.66;5103852;27;20960;-70
2021/06/07 07:01:44;;;;;;;22.93;21.13;;;;;;;15.28;82.73;101219.41;5103301;27;20207;-69
2021/06/07 07:04:10;;;;;;;24.27;22.10;;;;;;;15.41;82.98;101221.72;5102899;28;20785;-70
2021/06/07 07:06:37;;;;;;;22.23;20.53;;;;;;;15.50;82.49;101224.09;5103584;27;20740;-71
2021/06/07 07:09:04;;;;;;;22.03;20.23;;;;;;;15.57;82.74;101230.06;5103658;28;20218;-70
2021/06/07 07:11:29;;;;;;;22.30;20.50;;;;;;;15.47;82.46;101224.19;5104033;28;20293;-70
2021/06/07 07:13:55;;;;;;;22.33;20.73;;;;;;;15.65;81.70;101230.72;5102678;28;20270;-71
2021/06/07 07:16:21;;;;;;;23.20;21.60;;;;;;;15.75;81.77;101219.03;5103587;28;20245;-69
2021/06/07 07:18:47;;;;;;;22.90;21.00;;;;;;;15.74;80.84;101226.97;5103547;28;20230;-71
2021/06/07 07:21:13;;;;;;;24.10;22.13;;;;;;;15.41;81.94;101224.34;5103382;28;20765;-70
2021/06/07 07:23:40;;;;;;;24.43;22.37;;;;;;;15.40;82.83;101231.38;5103232;28;20647;-72
2021/06/07 07:26:06;;;;;;;23.43;21.63;;;;;;;15.16;83.56;101227.59;5103496;28;20260;-71
2021/06/07 07:28:32;;;;;;;24.57;22.87;;;;;;;14.97;83.85;101236.84;5102563;28;20508;-70
2021/06/07 07:30:58;;;;;;;24.90;22.83;;;;;;;15.14;83.75;101233.78;5103437;28;20671;-71
2021/06/07 07:33:24;;;;;;;25.67;23.07;;;;;;;15.39;83.81;101234.91;5102695;28;20219;-70
2021/06/07 07:35:50;;;;;;;25.67;23.87;;;;;;;15.41;83.20;101229.59;5102921;28;20237;-69
2021/06/07 07:38:16;;;;;;;25.53;23.57;;;;;;;15.47;83.58;101234.69;5103213;28;20792;-70
2021/06/07 07:40:45;;;;;;;25.83;23.83;;;;;;;15.17;82.05;101231.97;5106486;27;20476;-70
2021/06/07 07:43:11;;;;;;;25.43;23.57;;;;;;;15.15;83.49;101239.03;5106837;27;20672;-71
2021/06/07 07:45:38;;;;;;;25.13;23.07;;;;;;;15.31;82.56;101251.78;5107028;27;20213;-71
2021/06/07 07:48:06;;;;;;;26.03;23.87;;;;;;;15.51;81.78;101238.13;5106659;28;20251;-71
2021/06/07 07:50:33;;;;;;;25.03;23.00;;;;;;;15.60;81.39;101241.38;5106362;28;20213;-70
2021/06/07 07:52:59;;;;;;;23.73;21.80;;;;;;;15.73;81.50;101247.19;5106030;27;20210;-70
2021/06/07 07:55:28;;;;;;;24.13;22.17;;;;;;;16.01;80.05;101243.78;5106908;27;20210;-72
2021/06/07 07:57:56;;;;;;;23.90;21.73;;;;;;;15.94;79.37;101253.63;5105887;27;20722;-71
2021/06/07 08:00:25;;;;;;;24.43;22.50;;;;;;;16.08;79.70;101243.56;5105721;28;20211;-70
2021/06/07 08:02:51;;;;;;;24.90;23.03;;;;;;;16.21;79.56;101252.00;5105832;28;20216;-71
2021/06/07 08:05:17;;;;;;;23.90;21.60;;;;;;;16.06;78.70;101248.00;5106240;28;20304;-70
2021/06/07 08:07:43;;;;;;;24.63;22.70;;;;;;;15.88;79.32;101243.28;5106742;27;20265;-71
2021/06/07 08:10:11;;;;;;;24.97;23.03;;;;;;;16.00;79.64;101255.22;5106093;28;20204;-71
2021/06/07 08:12:38;;;;;;;24.73;22.90;;;;;;;15.89;79.82;101250.25;5105630;28;20210;-71
2021/06/07 08:15:06;;;;;;;25.63;23.63;;;;;;;15.93;80.49;101251.03;5106127;28;20235;-71
2021/06/07 08:17:33;;;;;;;25.27;23.27;;;;;;;15.96;79.88;101250.97;5105923;28;20222;-71
2021/06/07 08:19:58;;;;;;;26.17;24.33;;;;;;;16.08;79.75;101240.94;5105742;28;20231;-71
2021/06/07 08:22:24;;;;;;;27.20;25.03;;;;;;;16.13;79.31;101251.31;5105542;28;20483;-71
2021/06/07 08:24:50;;;;;;;26.23;24.30;;;;;;;16.16;80.17;101247.75;5105215;28;20314;-70
2021/06/07 08:27:16;;;;;;;25.10;23.27;;;;;;;16.13;80.76;101253.09;5106039;28;20213;-71
2021/06/07 08:29:42;;;;;;;25.40;23.50;;;;;;;16.18;80.72;101248.56;5105528;28;20292;-71
2021/06/07 08:32:10;;;;;;;25.43;23.60;;;;;;;16.06;80.22;101242.75;5105676;28;20203;-70
2021/06/07 08:34:36;;;;;;;26.77;24.43;;;;;;;15.86;80.65;101247.72;5105649;28;20627;-71
2021/06/07 08:37:02;;;;;;;25.67;23.80;;;;;;;16.08;80.32;101237.44;5105905;28;20209;-71
2021/06/07 08:39:28;;;;;;;26.33;24.03;;;;;;;15.98;79.92;101244.75;5105341;28;20227;-71
2021/06/07 08:41:56;;;;;;;24.47;22.80;;;;;;;16.16;79.19;101242.47;5105389;27;20203;-71
2021/06/07 08:44:22;;;;;;;24.33;22.53;;;;;;;16.45;80.12;101250.38;5104861;28;20630;-71
2021/06/07 08:46:48;;;;;;;26.10;23.70;;;;;;;16.65;77.95;101247.13;5105184;28;20211;-71
2021/06/07 08:49:15;;;;;;;24.30;22.17;;;;;;;16.82;77.41;101248.41;5105424;28;20248;-69
2021/06/07 08:51:41;;;;;;;23.87;22.07;;;;;;;16.68;77.59;101243.53;5104893;28;20678;-70
2021/06/07 08:54:07;;;;;;;25.37;23.03;;;;;;;16.15;79.04;101236.34;5104767;28;20241;-74
2021/06/07 08:56:33;;;;;;;25.70;23.70;;;;;;;16.33;79.53;101247.25;5105059;27;20594;-71
2021/06/07 08:58:59;;;;;;;23.97;22.27;;;;;;;16.58;79.04;101248.22;5104677;28;20282;-72
2021/06/07 09:01:25;;;;;;;25.67;23.77;;;;;;;16.59;78.91;101242.06;5105401;28;20207;-72
2021/06/07 09:03:51;;;;;;;23.50;21.70;;;;;;;16.85;78.95;101246.53;5104801;28;20591;-72
2021/06/07 09:06:25;;;;;;;23.13;21.33;;;;;;;17.10;77.50;101244.88;5105121;28;20238;-71
2021/06/07 09:09:02;;;;;;;24.60;22.73;;;;;;;17.10;76.77;101248.34;5105118;28;20594;-69
2021/06/07 09:11:28;;;;;;;25.00;23.10;;;;;;;17.02;76.50;101245.09;5104981;28;20264;-69
2021/06/07 09:13:54;;;;;;;24.83;22.83;;;;;;;17.26;77.10;101246.94;5104758;28;20224;-69
2021/06/07 09:16:20;;;;;;;23.57;21.87;;;;;;;17.56;76.45;101230.09;5104777;28;20211;-69
2021/06/07 09:18:48;;;;;;;23.40;21.67;;;;;;;17.53;76.31;101235.50;5104752;28;20227;-69
2021/06/07 09:21:16;;;;;;;22.77;20.47;;;;;;;17.44;74.72;101242.81;5104545;28;20555;-69
2021/06/07 09:23:49;;;;;;;21.60;20.10;;;;;;;17.45;74.87;101246.31;5104011;28;20251;-71
2021/06/07 09:26:24;;;;;;;21.90;20.40;;;;;;;17.31;75.30;101244.16;5104825;28;20284;-72
2021/06/07 09:28:54;;;;;;;23.17;21.50;;;;;;;17.33;74.93;101231.75;5104516;28;20502;-72
2021/06/07 09:31:26;;;;;;;22.03;20.53;;;;;;;17.29;76.09;101239.84;5104482;28;20242;-70
2021/06/07 09:33:52;;;;;;;22.87;21.03;;;;;;;17.22;76.77;101237.41;5104399;28;20233;-71
2021/06/07 09:36:23;;;;;;;22.23;20.73;;;;;;;17.31;75.80;101236.22;5104587;28;20208;-70
2021/06/07 09:39:04;;;;;;;22.23;20.63;;;;;;;16.80;77.20;101245.78;5104393;28;20232;-70
2021/06/07 09:41:31;;;;;;;22.83;21.13;;;;;;;16.79;77.89;101243.22;5104305;28;20203;-71
2021/06/07 09:43:59;;;;;;;22.17;20.43;;;;;;;17.25;78.04;101241.72;5103739;28;20238;-70
2021/06/07 09:46:27;;;;;;;21.23;19.73;;;;;;;17.22;74.96;101240.06;5104260;28;20204;-71
2021/06/07 09:49:04;;;;;;;21.63;19.93;;;;;;;17.31;75.63;101243.28;5104017;28;20243;-71
2021/06/07 09:51:30;;;;;;;20.73;18.93;;;;;;;17.58;76.06;101244.97;5104126;28;20212;-71
2021/06/07 09:53:56;;;;;;;18.83;17.43;;;;;;;17.47;76.08;101242.69;5103750;28;20239;-71
2021/06/07 09:56:24;;;;;;;18.53;17.17;;;;;;;17.44;75.33;101241.94;5104364;28;20204;-71
2021/06/07 09:58:51;;;;;;;20.30;18.80;;;;;;;17.61;75.97;101244.00;5103958;27;20225;-71
2021/06/07 10:01:20;;;;;;;19.73;18.20;;;;;;;17.78;73.65;101238.97;5103291;28;20261;-71
2021/06/07 10:03:51;;;;;;;19.03;17.37;;;;;;;17.80;74.28;101234.50;5103127;28;20285;-70
2021/06/07 10:06:26;;;;;;;20.33;18.73;;;;;;;17.47;75.04;101244.47;5104075;28;20215;-71
2021/06/07 10:08:57;;;;;;;19.20;17.87;;;;;;;17.25;75.22;101239.94;5103575;28;20286;-71
2021/06/07 10:11:25;;;;;;;17.87;16.53;;;;;;;17.27;75.22;101238.09;5104102;28;20268;-70
2021/06/07 10:14:04;;;;;;;18.50;17.00;;;;;;;17.50;75.72;101232.94;5103017;28;20714;-71
2021/06/07 10:16:30;;;;;;;18.27;16.97;;;;;;;17.57;74.31;101237.09;5103612;28;20723;-70
2021/06/07 10:18:59;;;;;;;19.30;17.90;;;;;;;17.34;76.36;101237.88;5103282;28;20231;-72
2021/06/07 10:21:24;;;;;;;19.93;18.53;;;;;;;17.35;76.07;101237.00;5103591;28;20208;-71
2021/06/07 10:23:50;;;;;;;18.20;16.90;;;;;;;17.65;75.32;101230.63;5102616;28;20237;-71
2021/06/07 10:26:16;;;;;;;18.90;17.53;;;;;;;18.03;74.47;101231.03;5103282;28;20228;-70
2021/06/07 10:28:44;;;;;;;19.23;17.93;;;;;;;17.07;75.74;101243.19;5103476;28;21178;-70
2021/06/07 10:31:13;;;;;;;19.93;18.37;;;;;;;16.96;76.43;101238.25;5104380;28;20295;-71
2021/06/07 10:33:40;;;;;;;19.37;17.97;;;;;;;17.34;77.08;101237.88;5105655;28;20223;-71
2021/06/07 10:36:45;;;;;;;18.37;16.87;;;;;;;17.55;75.45;101226.59;5104950;28;20690;-71
2021/06/07 10:39:27;;;;;;;18.67;17.37;;;;;;;17.51;76.01;101229.41;5103885;27;20226;-71
2021/06/07 10:42:18;;;;;;;19.87;18.30;;;;;;;17.70;76.71;101230.47;5103709;27;20260;-71
2021/06/07 10:44:49;;;;;;;20.10;18.70;;;;;;;17.67;76.22;101239.34;5103404;27;20432;-71
2021/06/07 10:47:17;;;;;;;18.10;16.90;;;;;;;17.68;76.41;101234.94;5103437;27;20244;-71
2021/06/07 10:49:45;;;;;;;18.23;17.03;;;;;;;17.80;75.00;101226.59;5103823;28;20204;-72
2021/06/07 10:52:14;;;;;;;17.83;16.67;;;;;;;17.99;74.66;101225.94;5103717;27;20207;-70
2021/06/07 10:54:42;;;;;;;17.00;15.87;;;;;;;17.99;75.35;101224.13;5103375;27;20575;-71
2021/06/07 10:57:34;;;;;;;17.37;16.13;;;;;;;18.31;75.02;101231.78;5103163;27;20215;-72
2021/06/07 11:00:08;;;;;;;17.20;16.00;;;;;;;18.28;74.32;101239.84;5103336;27;20226;-72
2021/06/07 11:02:37;;;;;;;18.47;17.20;;;;;;;18.26;73.45;101234.59;5102881;27;21143;-72
2021/06/07 11:05:08;;;;;;;19.47;18.17;;;;;;;17.90;74.68;101229.78;5103611;27;20228;-71
2021/06/07 11:07:35;;;;;;;16.33;15.30;;;;;;;18.12;75.36;101227.19;5103238;27;20274;-71
2021/06/07 11:10:25;;;;;;;17.60;16.40;;;;;;;18.54;74.89;101231.75;5103068;28;20203;-71